Time;durP1;ratioP1;P1;durP2;ratioP2;P2;SDS_P1;SDS_P2;PMS_P1;PMS_P2;Temp;Humidity;BMP_temperature;BMP_pressure;BME280_temperature;BME280_humidity;BME280_pressure;Samples;Min_cycle;Max_cycle;Signal;HPM_P1;HPM_P2
2022/07/27 00:00:03;;;;;;;0.30;0.30;;;;;;;13.27;82.55;100645.19;5071250;28;20186;-74
2022/07/27 00:02:28;;;;;;;0.00;0.00;;;;;;;13.24;83.31;100636.81;5072418;28;20618;-74
2022/07/27 00:04:53;;;;;;;0.00;0.00;;;;;;;13.24;83.75;100651.34;5072434;28;20253;-73
2022/07/27 00:07:19;;;;;;;0.00;0.00;;;;;;;13.17;84.59;100650.19;5070737;28;20647;-73
2022/07/27 00:09:44;;;;;;;0.00;0.00;;;;;;;13.14;84.43;100645.34;5071923;28;20658;-73
2022/07/27 00:12:10;;;;;;;0.00;0.00;;;;;;;13.16;84.78;100652.09;5071992;28;20213;-74
2022/07/27 00:14:35;;;;;;;0.20;0.20;;;;;;;13.19;85.04;100643.28;5071986;28;20174;-73
2022/07/27 00:17:00;;;;;;;0.00;0.00;;;;;;;13.17;85.28;100650.19;5070583;28;20179;-72
2022/07/27 00:19:26;;;;;;;0.00;0.00;;;;;;;13.15;86.03;100649.69;5071887;28;20270;-72
2022/07/27 00:21:51;;;;;;;0.00;0.00;;;;;;;13.15;86.50;100647.75;5071968;28;20202;-73
2022/07/27 00:24:16;;;;;;;0.00;0.00;;;;;;;13.18;86.95;100647.16;5071786;28;20630;-73
2022/07/27 00:26:42;;;;;;;0.00;0.00;;;;;;;13.21;86.43;100643.75;5070350;28;20178;-74
2022/07/27 00:29:07;;;;;;;0.00;0.00;;;;;;;13.21;86.50;100646.50;5071651;28;20181;-72
2022/07/27 00:31:33;;;;;;;0.00;0.00;;;;;;;13.23;86.79;100646.19;5070540;28;20206;-73
2022/07/27 00:33:58;;;;;;;4.30;1.37;;;;;;;13.24;87.06;100642.28;5070330;28;20181;-73
2022/07/27 00:36:23;;;;;;;0.00;0.00;;;;;;;13.24;87.33;100639.56;5071633;28;20204;-74
2022/07/27 00:38:49;;;;;;;0.00;0.00;;;;;;;13.22;87.07;100641.81;5069928;28;20177;-74
2022/07/27 00:41:14;;;;;;;0.07;0.07;;;;;;;13.23;87.29;100640.69;5071478;28;20706;-74
2022/07/27 00:43:50;;;;;;;0.00;0.00;;;;;;;13.26;87.57;100640.84;5071774;28;20686;-74
2022/07/27 00:46:16;;;;;;;0.00;0.00;;;;;;;13.26;87.39;100635.34;5067509;28;20215;-73
2022/07/27 00:48:41;;;;;;;0.00;0.00;;;;;;;13.24;87.74;100645.84;5070116;28;20239;-73
2022/07/27 00:51:06;;;;;;;0.23;0.23;;;;;;;13.19;87.83;100639.72;5070469;28;20237;-73
2022/07/27 00:53:32;;;;;;;0.00;0.00;;;;;;;13.14;88.36;100637.91;5069413;28;20175;-73
2022/07/27 00:55:58;;;;;;;0.10;0.10;;;;;;;13.10;88.92;100639.69;5070674;28;20186;-73
2022/07/27 00:58:25;;;;;;;0.40;0.40;;;;;;;13.07;88.82;100635.66;5068567;28;20377;-74
2022/07/27 01:00:51;;;;;;;0.00;0.00;;;;;;;13.07;89.21;100638.41;5068637;28;20189;-72
2022/07/27 01:03:16;;;;;;;0.00;0.00;;;;;;;13.02;89.15;100635.84;5067174;28;20170;-75
2022/07/27 01:05:41;;;;;;;0.00;0.00;;;;;;;13.04;89.32;100641.81;5064372;28;20288;-73
2022/07/27 01:08:10;;;;;;;0.00;0.00;;;;;;;13.05;89.26;100637.94;5070233;28;20179;-74
2022/07/27 01:10:37;;;;;;;0.13;0.13;;;;;;;13.08;88.78;100640.03;5070375;28;20262;-74
2022/07/27 01:13:03;;;;;;;0.00;0.00;;;;;;;13.10;88.88;100635.00;5070441;28;20202;-73
2022/07/27 01:15:29;;;;;;;0.13;0.10;;;;;;;13.08;89.04;100637.28;5067930;28;20185;-73
2022/07/27 01:17:55;;;;;;;0.97;0.93;;;;;;;13.09;89.34;100629.84;5068968;28;20188;-72
2022/07/27 01:20:20;;;;;;;0.00;0.00;;;;;;;13.04;89.19;100630.84;5070072;28;20693;-74
2022/07/27 01:22:45;;;;;;;0.03;0.00;;;;;;;13.02;89.39;100629.53;5069119;28;20244;-74
2022/07/27 01:25:12;;;;;;;0.00;0.00;;;;;;;12.99;89.63;100622.75;5070410;28;20189;-74
2022/07/27 01:27:38;;;;;;;0.00;0.00;;;;;;;12.93;90.12;100626.78;5070082;28;20252;-73
2022/07/27 01:30:25;;;;;;;0.00;0.00;;;;;;;12.94;90.26;100624.84;5069572;28;20550;-74
2022/07/27 01:32:50;;;;;;;0.20;0.13;;;;;;;12.91;90.04;100631.78;5070022;28;20219;-73
2022/07/27 01:35:15;;;;;;;0.00;0.00;;;;;;;12.86;90.48;100612.75;5070193;28;20189;-73
2022/07/27 01:37:40;;;;;;;0.00;0.00;;;;;;;12.85;90.77;100624.03;5069879;28;20650;-73
2022/07/27 01:40:06;;;;;;;0.00;0.00;;;;;;;12.72;90.29;100625.78;5069791;28;20538;-73
2022/07/27 01:42:32;;;;;;;0.00;0.00;;;;;;;12.67;91.06;100634.19;5068819;28;20178;-72
2022/07/27 01:44:57;;;;;;;1.00;1.00;;;;;;;12.62;92.07;100632.41;5069997;28;20654;-74
2022/07/27 01:47:22;;;;;;;0.00;0.00;;;;;;;12.57;92.25;100634.47;5068390;28;20657;-72
2022/07/27 01:49:48;;;;;;;0.00;0.00;;;;;;;12.54;92.11;100629.66;5069673;28;20174;-72
2022/07/27 01:52:13;;;;;;;0.00;0.00;;;;;;;12.47;93.27;100632.88;5070340;28;20221;-73
2022/07/27 01:54:38;;;;;;;0.00;0.00;;;;;;;12.42;93.06;100635.75;5070186;28;20189;-75
2022/07/27 01:57:04;;;;;;;0.00;0.00;;;;;;;12.40;93.68;100632.53;5069760;28;20172;-73
2022/07/27 01:59:29;;;;;;;0.00;0.00;;;;;;;12.39;94.30;100637.19;5069405;28;20487;-73
2022/07/27 02:01:54;;;;;;;0.00;0.00;;;;;;;12.36;94.33;100631.56;5068704;28;20269;-74
2022/07/27 02:04:22;;;;;;;0.00;0.00;;;;;;;12.30;94.53;100638.31;5070093;28;20266;-73
2022/07/27 02:06:47;;;;;;;0.00;0.00;;;;;;;12.22;95.06;100631.66;5069622;28;20175;-73
2022/07/27 02:09:12;;;;;;;0.40;0.40;;;;;;;12.16;95.34;100630.22;5069421;28;20171;-73
2022/07/27 02:14:21;;;;;;;0.00;0.00;;;;;;;12.13;96.28;100628.09;5069832;28;20601;-73
2022/07/27 02:16:47;;;;;;;0.00;0.00;;;;;;;12.11;96.55;100624.84;5069989;28;20175;-74
2022/07/27 02:19:12;;;;;;;0.00;0.00;;;;;;;12.09;96.50;100625.19;5073407;28;20546;-73
2022/07/27 02:21:38;;;;;;;0.00;0.00;;;;;;;12.11;96.74;100613.91;5073859;28;20602;-73
2022/07/27 02:24:03;;;;;;;0.03;0.03;;;;;;;12.11;97.04;100624.84;5073804;28;20175;-72
2022/07/27 02:26:29;;;;;;;0.00;0.00;;;;;;;12.05;96.68;100624.22;5073553;28;20175;-74
2022/07/27 02:28:54;;;;;;;0.00;0.00;;;;;;;12.04;96.78;100636.28;5073025;28;20261;-72
2022/07/27 02:31:20;;;;;;;0.00;0.00;;;;;;;11.99;97.06;100632.88;5072353;28;20605;-73
2022/07/27 02:33:45;;;;;;;0.00;0.00;;;;;;;11.99;97.67;100633.66;5073629;28;20615;-72
2022/07/27 02:36:11;;;;;;;0.00;0.00;;;;;;;12.00;97.82;100623.53;5073583;28;20244;-73
2022/07/27 02:38:36;;;;;;;0.00;0.00;;;;;;;11.99;97.77;100630.13;5071499;28;20171;-73
2022/07/27 02:41:02;;;;;;;0.00;0.00;;;;;;;11.99;97.67;100638.34;5072046;28;20198;-73
2022/07/27 02:43:27;;;;;;;0.43;0.10;;;;;;;11.96;98.13;100631.56;5073697;28;20232;-72
2022/07/27 02:45:52;;;;;;;0.00;0.00;;;;;;;11.93;97.96;100636.88;5072115;28;20630;-73
2022/07/27 02:48:17;;;;;;;0.57;0.57;;;;;;;11.95;98.28;100642.84;5072559;28;20205;-72
2022/07/27 02:50:43;;;;;;;0.00;0.00;;;;;;;11.94;98.36;100639.28;5072048;28;20194;-73
2022/07/27 02:53:08;;;;;;;0.00;0.00;;;;;;;11.96;98.74;100638.97;5073221;28;20248;-73
2022/07/27 02:55:33;;;;;;;0.10;0.10;;;;;;;11.97;98.32;100638.66;5073051;28;20174;-73
2022/07/27 02:57:59;;;;;;;0.73;0.60;;;;;;;11.99;98.32;100636.41;5073236;28;20182;-73
2022/07/27 03:00:24;;;;;;;0.00;0.00;;;;;;;12.05;98.12;100635.16;5071286;28;20175;-72
2022/07/27 03:02:50;;;;;;;0.00;0.00;;;;;;;12.14;98.14;100643.41;5073091;28;20224;-72
2022/07/27 03:05:16;;;;;;;0.10;0.10;;;;;;;12.19;97.57;100648.75;5071636;28;20170;-73
2022/07/27 03:07:41;;;;;;;0.00;0.00;;;;;;;12.20;96.67;100642.16;5071466;28;20233;-73
2022/07/27 03:10:07;;;;;;;0.00;0.00;;;;;;;12.18;96.08;100639.72;5072531;28;20214;-73
2022/07/27 03:12:32;;;;;;;0.10;0.10;;;;;;;12.24;95.74;100640.38;5072689;28;20664;-74
2022/07/27 03:14:58;;;;;;;0.07;0.07;;;;;;;12.27;95.39;100644.41;5072836;28;20171;-74
2022/07/27 03:17:23;;;;;;;1.00;1.00;;;;;;;12.31;95.47;100642.66;5071140;28;20549;-73
2022/07/27 03:19:48;;;;;;;0.00;0.00;;;;;;;12.32;94.54;100638.81;5072422;28;20182;-74
2022/07/27 03:22:14;;;;;;;0.00;0.00;;;;;;;12.34;94.38;100640.09;5073229;28;20178;-72
2022/07/27 03:24:40;;;;;;;0.03;0.03;;;;;;;12.33;94.41;100637.66;5072685;28;20253;-73
2022/07/27 03:27:05;;;;;;;0.00;0.00;;;;;;;12.32;94.02;100639.59;5072202;28;20273;-74
2022/07/27 03:29:30;;;;;;;0.00;0.00;;;;;;;12.29;94.42;100640.22;5071703;28;20181;-74
2022/07/27 03:31:56;;;;;;;0.00;0.00;;;;;;;12.29;94.95;100647.63;5072410;28;20213;-74
2022/07/27 03:34:21;;;;;;;0.00;0.00;;;;;;;12.27;94.77;100653.44;5071282;28;20222;-73
2022/07/27 03:36:47;;;;;;;0.00;0.00;;;;;;;12.25;94.77;100658.41;5072308;28;20863;-74
2022/07/27 03:39:12;;;;;;;16.13;1.40;;;;;;;12.21;95.32;100661.00;5071959;28;20179;-74
2022/07/27 03:41:38;;;;;;;0.37;0.37;;;;;;;12.18;95.25;100661.63;5072187;28;20171;-73
2022/07/27 03:44:04;;;;;;;0.13;0.13;;;;;;;12.19;95.87;100662.44;5072307;28;20238;-75
2022/07/27 03:46:29;;;;;;;0.10;0.10;;;;;;;12.18;96.24;100658.91;5072240;28;20178;-72
2022/07/27 03:48:56;;;;;;;0.50;0.50;;;;;;;12.17;96.20;100667.44;5070151;28;20170;-74
2022/07/27 03:51:21;;;;;;;12.13;0.97;;;;;;;12.16;96.04;100657.59;5072091;28;20194;-73
2022/07/27 03:53:47;;;;;;;0.33;0.33;;;;;;;12.17;96.08;100656.47;5072176;28;20683;-74
2022/07/27 03:56:12;;;;;;;0.00;0.00;;;;;;;12.20;96.02;100662.13;5072203;28;20181;-73
2022/07/27 03:58:38;;;;;;;0.30;0.30;;;;;;;12.23;95.71;100657.13;5071478;28;20569;-72
2022/07/27 04:01:03;;;;;;;0.00;0.00;;;;;;;12.28;95.41;100670.69;5071991;28;20179;-74
2022/07/27 04:03:28;;;;;;;0.27;0.27;;;;;;;12.33;94.90;100668.63;5072021;28;20227;-74
2022/07/27 04:05:54;;;;;;;0.00;0.00;;;;;;;12.36;94.79;100675.38;5070556;28;20626;-73
2022/07/27 04:08:20;;;;;;;0.17;0.17;;;;;;;12.39;94.80;100672.81;5069801;28;20170;-73
2022/07/27 04:10:46;;;;;;;0.00;0.00;;;;;;;12.41;94.80;100672.50;5071708;28;20224;-74
2022/07/27 04:13:12;;;;;;;0.00;0.00;;;;;;;12.41;94.33;100673.31;5071746;28;20189;-74
2022/07/27 04:15:37;;;;;;;0.00;0.00;;;;;;;12.43;94.48;100679.25;5070517;28;20171;-74
2022/07/27 04:18:06;;;;;;;0.07;0.07;;;;;;;12.47;94.03;100676.72;5071335;28;20175;-73
2022/07/27 04:20:31;;;;;;;0.00;0.00;;;;;;;12.48;94.06;100676.41;5071781;28;20642;-74
2022/07/27 04:22:56;;;;;;;0.10;0.10;;;;;;;12.48;93.75;100673.66;5070200;28;20239;-74
2022/07/27 04:25:22;;;;;;;0.00;0.00;;;;;;;12.49;93.76;100678.00;5071210;28;20182;-74
2022/07/27 04:27:47;;;;;;;0.10;0.00;;;;;;;12.51;94.18;100685.91;5071358;28;20216;-73
2022/07/27 04:30:13;;;;;;;0.60;0.30;;;;;;;12.51;93.65;100681.25;5070956;28;20407;-75
2022/07/27 04:32:38;;;;;;;0.10;0.10;;;;;;;12.55;94.26;100677.84;5069974;28;20618;-74
2022/07/27 04:35:04;;;;;;;0.00;0.00;;;;;;;12.54;94.50;100678.97;5070989;28;20650;-74
2022/07/27 04:37:31;;;;;;;0.83;0.83;;;;;;;12.56;93.76;100674.78;5070892;28;20175;-74
2022/07/27 04:39:57;;;;;;;0.00;0.00;;;;;;;12.59;93.32;100682.41;5069776;28;20380;-73
2022/07/27 04:42:22;;;;;;;0.37;0.17;;;;;;;12.62;93.22;100687.25;5071269;28;20566;-73
2022/07/27 04:44:48;;;;;;;0.20;0.20;;;;;;;12.65;93.08;100678.38;5071101;28;20174;-73
2022/07/27 04:47:13;;;;;;;0.00;0.00;;;;;;;12.71;92.65;100684.50;5069457;28;20182;-74
2022/07/27 04:49:38;;;;;;;0.10;0.10;;;;;;;12.77;92.16;100675.00;5070541;28;20178;-73
2022/07/27 04:52:04;;;;;;;0.27;0.27;;;;;;;12.81;91.70;100676.78;5070921;28;20192;-73
2022/07/27 04:54:29;;;;;;;1.20;0.47;;;;;;;12.85;91.30;100676.94;5069480;28;20174;-73
2022/07/27 04:56:55;;;;;;;0.00;0.00;;;;;;;12.88;90.78;100678.25;5070901;28;20619;-74
2022/07/27 04:59:20;;;;;;;0.10;0.10;;;;;;;12.91;90.84;100681.16;5068997;28;20586;-74
2022/07/27 05:01:45;;;;;;;0.00;0.00;;;;;;;12.96;90.33;100678.25;5070944;28;20722;-73
2022/07/27 05:04:11;;;;;;;0.77;0.40;;;;;;;13.02;90.90;100676.97;5070754;28;20170;-75
2022/07/27 05:06:36;;;;;;;0.10;0.10;;;;;;;13.05;90.40;100684.56;5070603;28;20270;-77
2022/07/27 05:09:02;;;;;;;0.10;0.10;;;;;;;13.07;90.33;100693.25;5070257;28;20703;-76
2022/07/27 05:11:28;;;;;;;0.00;0.00;;;;;;;13.07;90.46;100697.94;5069752;28;20232;-77
2022/07/27 05:13:53;;;;;;;0.10;0.10;;;;;;;13.02;90.33;100700.84;5070662;28;20183;-77
2022/07/27 05:16:18;;;;;;;0.00;0.00;;;;;;;13.01;91.24;100696.47;5069381;28;20182;-77
2022/07/27 05:18:44;;;;;;;0.00;0.00;;;;;;;13.02;91.53;100690.69;5068705;28;20189;-75
2022/07/27 05:21:10;;;;;;;0.27;0.27;;;;;;;12.99;91.74;100693.25;5069253;28;20178;-74
2022/07/27 05:23:35;;;;;;;0.00;0.00;;;;;;;12.97;92.43;100684.53;5070466;28;20185;-77
2022/07/27 05:26:01;;;;;;;0.07;0.07;;;;;;;12.94;92.45;100696.16;5070516;28;20746;-77
2022/07/27 05:28:28;;;;;;;0.00;0.00;;;;;;;12.93;93.51;100695.34;5069776;28;20235;-76
2022/07/27 05:30:53;;;;;;;0.57;0.57;;;;;;;12.91;93.88;100694.06;5070534;28;20198;-78
2022/07/27 05:33:19;;;;;;;0.10;0.10;;;;;;;12.88;93.25;100692.78;5069360;28;20256;-77
2022/07/27 05:35:44;;;;;;;0.10;0.10;;;;;;;12.90;93.69;100700.69;5069322;28;20446;-77
2022/07/27 05:38:10;;;;;;;0.27;0.27;;;;;;;12.92;93.99;100703.91;5068444;28;20793;-77
2022/07/27 05:40:35;;;;;;;0.00;0.00;;;;;;;12.97;93.47;100709.22;5070522;28;20181;-76
2022/07/27 05:43:01;;;;;;;0.00;0.00;;;;;;;13.02;93.76;100714.56;5070742;28;20206;-78
2022/07/27 05:45:26;;;;;;;0.00;0.00;;;;;;;13.10;93.71;100717.31;5070622;28;20631;-77
2022/07/27 05:47:53;;;;;;;0.10;0.10;;;;;;;13.15;93.07;100719.06;5070518;28;20175;-75
2022/07/27 05:50:19;;;;;;;1.30;1.20;;;;;;;13.22;92.76;100730.44;5070315;28;20345;-78
2022/07/27 05:52:44;;;;;;;0.00;0.00;;;;;;;13.27;92.39;100727.50;5068871;28;20709;-77
2022/07/27 05:55:10;;;;;;;0.00;0.00;;;;;;;13.33;92.22;100733.66;5070318;28;20224;-78
2022/07/27 05:57:36;;;;;;;0.33;0.33;;;;;;;13.38;91.59;100736.25;5069835;28;20182;-74
2022/07/27 06:00:05;;;;;;;0.50;0.50;;;;;;;13.44;91.16;100745.91;5068445;28;20171;-75
2022/07/27 06:02:30;;;;;;;0.07;0.07;;;;;;;13.51;91.23;100740.75;5070085;28;20613;-76
2022/07/27 06:04:56;;;;;;;0.00;0.00;;;;;;;13.62;90.05;100752.22;5070625;28;20240;-77
2022/07/27 06:10:05;;;;;;;0.00;0.00;;;;;;;13.84;86.56;100756.72;5070013;28;20224;-77
2022/07/27 06:12:37;;;;;;;0.10;0.10;;;;;;;13.96;85.39;100757.66;5068652;28;20721;-76
2022/07/27 06:15:03;;;;;;;0.00;0.00;;;;;;;14.04;83.72;100755.25;5070435;28;20243;-77
2022/07/27 06:17:29;;;;;;;0.00;0.00;;;;;;;14.13;83.68;100762.31;5069804;28;20565;-77
2022/07/27 06:19:54;;;;;;;0.00;0.00;;;;;;;14.16;82.14;100760.84;5069552;28;20181;-78
2022/07/27 06:22:19;;;;;;;0.03;0.03;;;;;;;14.17;81.33;100763.25;5069957;28;20206;-76
2022/07/27 06:24:45;;;;;;;1.17;0.53;;;;;;;14.20;80.99;100768.13;5069930;28;20546;-78
2022/07/27 06:27:10;;;;;;;0.43;0.43;;;;;;;14.23;81.33;100767.47;5069912;28;20262;-78
2022/07/27 06:29:35;;;;;;;0.00;0.00;;;;;;;14.33;81.56;100774.56;5069114;28;20574;-76
2022/07/27 06:32:01;;;;;;;0.00;0.00;;;;;;;14.42;81.16;100771.75;5070321;28;20187;-77
2022/07/27 06:34:26;;;;;;;0.00;0.00;;;;;;;14.47;80.24;100769.69;5070219;28;20270;-76
2022/07/27 06:36:51;;;;;;;0.00;0.00;;;;;;;14.48;79.50;100765.00;5068257;28;20217;-77
2022/07/27 06:39:17;;;;;;;5.93;0.97;;;;;;;14.56;79.77;100775.94;5069426;28;20182;-75
2022/07/27 06:41:42;;;;;;;0.90;0.73;;;;;;;14.63;79.41;100769.94;5069875;28;20298;-75
2022/07/27 06:44:07;;;;;;;0.00;0.00;;;;;;;14.69;79.19;100773.28;5069682;28;20646;-75
2022/07/27 06:46:33;;;;;;;0.00;0.00;;;;;;;14.75;79.43;100775.50;5065330;28;20183;-73
2022/07/27 06:48:58;;;;;;;0.00;0.00;;;;;;;14.78;78.99;100783.13;5064818;28;20190;-80
2022/07/27 06:51:23;;;;;;;0.00;0.00;;;;;;;14.85;79.01;100775.16;5062779;28;20195;-77
2022/07/27 06:53:53;;;;;;;1.20;0.83;;;;;;;14.91;78.45;100777.72;5069348;28;20547;-77
2022/07/27 06:56:19;;;;;;;0.00;0.00;;;;;;;15.05;78.27;100779.09;5067665;28;20240;-77
2022/07/27 06:58:44;;;;;;;0.00;0.00;;;;;;;15.10;76.62;100767.09;5062489;28;20229;-79
2022/07/27 07:01:10;;;;;;;0.63;0.63;;;;;;;15.23;75.86;100773.47;5060158;28;20273;-78
2022/07/27 07:03:35;;;;;;;0.00;0.00;;;;;;;15.44;73.48;100780.59;5070635;28;20201;-75
2022/07/27 07:06:01;;;;;;;0.00;0.00;;;;;;;15.52;71.66;100775.38;5072991;28;20186;-77
2022/07/27 07:08:26;;;;;;;0.37;0.37;;;;;;;15.60;71.51;100775.31;5071116;28;20186;-77
2022/07/27 07:10:53;;;;;;;1.13;0.27;;;;;;;15.73;71.07;100776.16;5073133;28;20210;-77
2022/07/27 07:13:18;;;;;;;0.00;0.00;;;;;;;15.75;68.97;100768.38;5071251;28;20630;-77
2022/07/27 07:15:44;;;;;;;0.00;0.00;;;;;;;15.76;69.10;100778.25;5070027;28;20204;-77
2022/07/27 07:18:10;;;;;;;0.77;0.77;;;;;;;15.70;67.28;100769.41;5072087;28;20190;-77
2022/07/27 07:20:37;;;;;;;0.00;0.00;;;;;;;15.74;67.97;100772.28;5072944;28;20205;-77
2022/07/27 07:23:04;;;;;;;0.10;0.10;;;;;;;16.01;68.03;100771.69;5072698;28;20198;-77
2022/07/27 07:25:31;;;;;;;0.00;0.00;;;;;;;15.94;66.72;100771.44;5072701;28;20642;-76
2022/07/27 07:27:57;;;;;;;0.43;0.43;;;;;;;16.00;66.18;100772.84;5071238;28;20285;-78
2022/07/27 07:30:22;;;;;;;0.00;0.00;;;;;;;16.12;65.78;100776.78;5072146;28;20182;-77
2022/07/27 07:32:48;;;;;;;0.30;0.30;;;;;;;16.11;63.93;100783.44;5072660;28;20178;-77
2022/07/27 07:35:14;;;;;;;0.10;0.10;;;;;;;15.99;64.69;100779.50;5072463;28;20175;-74
2022/07/27 07:37:40;;;;;;;0.00;0.00;;;;;;;16.19;66.11;100780.56;5072735;28;20171;-75
2022/07/27 07:40:06;;;;;;;13.23;1.10;;;;;;;16.16;65.69;100785.97;5072445;28;20174;-75
2022/07/27 07:42:31;;;;;;;0.00;0.00;;;;;;;16.11;63.53;100778.72;5071111;28;20206;-74
2022/07/27 07:44:56;;;;;;;0.00;0.00;;;;;;;16.16;63.27;100791.47;5072392;28;20170;-75
2022/07/27 07:47:22;;;;;;;2.73;0.73;;;;;;;16.32;62.70;100790.50;5072069;28;20493;-74
2022/07/27 07:49:49;;;;;;;0.20;0.10;;;;;;;16.16;60.34;100785.97;5071831;28;20171;-74
2022/07/27 07:52:15;;;;;;;0.00;0.00;;;;;;;16.14;60.14;100791.81;5072180;28;20171;-74
2022/07/27 07:54:43;;;;;;;0.00;0.00;;;;;;;16.10;60.46;100799.19;5072258;28;20626;-75
2022/07/27 07:57:09;;;;;;;0.00;0.00;;;;;;;16.28;60.70;100795.09;5066924;28;20214;-74
2022/07/27 07:59:34;;;;;;;0.00;0.00;;;;;;;16.54;59.92;100802.25;5070843;28;20269;-75
2022/07/27 08:02:02;;;;;;;0.00;0.00;;;;;;;16.78;58.68;100801.50;5068706;28;20242;-74
2022/07/27 08:04:27;;;;;;;0.00;0.00;;;;;;;16.78;58.76;100802.31;5069788;28;20228;-75
2022/07/27 08:06:52;;;;;;;0.00;0.00;;;;;;;16.71;58.98;100793.00;5070437;28;20537;-75
2022/07/27 08:09:20;;;;;;;1.70;0.27;;;;;;;16.74;58.13;100797.81;5069506;28;20362;-75
2022/07/27 08:11:45;;;;;;;0.00;0.00;;;;;;;17.00;57.90;100798.28;5067227;28;20195;-75
2022/07/27 08:14:11;;;;;;;0.00;0.00;;;;;;;17.36;57.64;100794.69;5070613;28;20204;-74
2022/07/27 08:16:36;;;;;;;0.00;0.00;;;;;;;17.42;56.63;100796.03;5071937;28;20174;-74
2022/07/27 08:19:02;;;;;;;0.00;0.00;;;;;;;17.48;56.23;100804.88;5072356;28;20206;-74
2022/07/27 08:21:27;;;;;;;0.00;0.00;;;;;;;17.48;56.16;100802.13;5070830;28;20229;-73
2022/07/27 08:23:53;;;;;;;0.00;0.00;;;;;;;17.51;55.39;100810.53;5070839;28;20175;-74
2022/07/27 08:26:18;;;;;;;0.00;0.00;;;;;;;17.46;55.17;100801.66;5072065;28;20622;-74
2022/07/27 08:28:44;;;;;;;0.00;0.00;;;;;;;17.33;56.05;100805.59;5070297;28;20618;-74
2022/07/27 08:31:09;;;;;;;0.00;0.00;;;;;;;17.34;55.65;100799.72;5070731;28;20213;-72
2022/07/27 08:33:34;;;;;;;0.97;0.97;;;;;;;17.37;55.32;100806.53;5068672;28;20235;-73
2022/07/27 08:36:00;;;;;;;0.00;0.00;;;;;;;17.18;55.34;100801.59;5071144;28;20179;-74
2022/07/27 08:38:26;;;;;;;0.30;0.20;;;;;;;17.19;55.54;100792.97;5071450;28;20175;-73
2022/07/27 08:40:54;;;;;;;0.00;0.00;;;;;;;17.30;57.35;100798.03;5071767;28;20179;-73
2022/07/27 08:43:19;;;;;;;0.83;0.53;;;;;;;17.37;57.02;100798.25;5070201;28;20202;-73
2022/07/27 08:45:54;;;;;;;0.00;0.00;;;;;;;17.16;56.64;100793.66;5071728;28;20171;-73
2022/07/27 08:48:21;;;;;;;0.00;0.00;;;;;;;17.15;57.23;100794.81;5070245;28;20182;-74
2022/07/27 08:50:50;;;;;;;0.00;0.00;;;;;;;17.24;58.15;100795.50;5070142;28;20186;-76
2022/07/27 08:53:17;;;;;;;0.00;0.00;;;;;;;17.42;57.04;100798.00;5071668;28;20181;-77
2022/07/27 08:55:45;;;;;;;4.23;3.43;;;;;;;17.49;56.60;100795.44;5071483;28;20186;-77
2022/07/27 08:58:12;;;;;;;0.07;0.07;;;;;;;17.37;56.69;100799.06;5071046;28;20178;-76
2022/07/27 09:00:40;;;;;;;0.00;0.00;;;;;;;17.35;56.95;100792.25;5071311;28;20171;-76
2022/07/27 09:03:06;;;;;;;0.00;0.00;;;;;;;17.25;57.52;100788.84;5069943;28;20264;-73
2022/07/27 09:05:39;;;;;;;0.37;0.37;;;;;;;17.42;56.58;100795.25;5071410;28;20178;-75
2022/07/27 09:08:16;;;;;;;0.00;0.00;;;;;;;17.66;55.15;100789.66;5069287;28;20645;-75
2022/07/27 09:10:43;;;;;;;0.00;0.00;;;;;;;17.78;54.33;100795.13;5068229;28;20182;-75
2022/07/27 09:13:24;;;;;;;0.00;0.00;;;;;;;17.72;54.83;100798.53;5069831;28;20183;-74
2022/07/27 09:15:56;;;;;;;0.00;0.00;;;;;;;17.57;55.13;100791.75;5069627;28;20175;-74
2022/07/27 09:18:26;;;;;;;0.57;0.57;;;;;;;17.37;50.53;100801.00;5069610;28;20193;-74
2022/07/27 09:21:16;;;;;;;0.00;0.00;;;;;;;17.35;51.43;100804.09;5070686;28;20183;-74
2022/07/27 09:23:47;;;;;;;0.10;0.10;;;;;;;17.39;51.18;100791.22;5070503;28;20177;-74
2022/07/27 09:26:16;;;;;;;1.03;0.20;;;;;;;17.41;52.10;100804.69;5070302;28;20238;-74
2022/07/27 09:28:42;;;;;;;0.47;0.40;;;;;;;17.65;54.16;100801.03;5069948;28;20170;-75
2022/07/27 09:31:11;;;;;;;0.00;0.00;;;;;;;17.77;53.86;100799.06;5070744;28;20216;-75
2022/07/27 09:33:52;;;;;;;0.00;0.00;;;;;;;17.91;53.47;100787.59;5070414;28;20171;-76
2022/07/27 09:36:21;;;;;;;0.00;0.00;;;;;;;17.91;52.90;100792.34;5070481;28;20266;-74
2022/07/27 09:38:53;;;;;;;1.27;0.83;;;;;;;18.11;52.44;100799.63;5069748;28;20653;-75
2022/07/27 09:41:19;;;;;;;0.00;0.00;;;;;;;18.25;52.06;100790.91;5070352;28;20173;-74
2022/07/27 09:43:52;;;;;;;0.10;0.10;;;;;;;18.22;50.99;100783.31;5068986;28;20232;-75
2022/07/27 09:46:41;;;;;;;0.03;0.03;;;;;;;18.23;50.23;100793.22;5070352;28;20250;-75
2022/07/27 09:49:25;;;;;;;0.00;0.00;;;;;;;18.33;50.38;100789.91;5068363;28;20186;-74
2022/07/27 09:51:51;;;;;;;4.97;4.60;;;;;;;18.43;50.41;100792.16;5070210;28;20620;-75
2022/07/27 09:54:17;;;;;;;0.07;0.03;;;;;;;18.36;48.79;100787.25;5070318;28;20630;-74
2022/07/27 09:56:43;;;;;;;0.60;0.27;;;;;;;18.50;49.35;100783.25;5070010;28;20178;-75
2022/07/27 09:59:16;;;;;;;0.00;0.00;;;;;;;18.72;48.57;100780.69;5064582;28;20186;-75
2022/07/27 10:01:42;;;;;;;0.00;0.00;;;;;;;19.00;47.77;100786.09;5063037;28;20218;-74
2022/07/27 10:04:08;;;;;;;0.50;0.37;;;;;;;19.23;47.15;100772.38;5066683;28;20266;-75
2022/07/27 10:06:34;;;;;;;0.57;0.40;;;;;;;18.93;46.36;100774.03;5068893;28;20551;-76
2022/07/27 10:08:59;;;;;;;0.00;0.00;;;;;;;18.92;47.71;100780.75;5068882;28;20186;-76
2022/07/27 10:11:26;;;;;;;0.10;0.10;;;;;;;18.93;47.88;100777.63;5068490;28;20182;-77
2022/07/27 10:13:54;;;;;;;0.10;0.10;;;;;;;18.92;49.13;100775.22;5068925;28;20178;-76
2022/07/27 10:16:22;;;;;;;0.00;0.00;;;;;;;18.92;47.32;100772.44;5070402;28;20174;-76
2022/07/27 10:19:16;;;;;;;0.00;0.00;;;;;;;18.86;46.98;100769.16;5068771;28;20642;-78
2022/07/27 10:21:44;;;;;;;0.00;0.00;;;;;;;19.13;46.04;100774.91;5034081;28;20363;-78
2022/07/27 10:24:22;;;;;;;5.00;0.10;;;;;;;19.27;46.44;100766.94;5070317;28;20180;-77
2022/07/27 10:26:47;;;;;;;3.03;0.47;;;;;;;19.45;45.99;100767.31;5070269;28;20244;-77
2022/07/27 10:29:13;;;;;;;0.00;0.00;;;;;;;19.52;46.08;100770.22;5070101;28;20262;-77
2022/07/27 10:31:51;;;;;;;0.00;0.00;;;;;;;19.52;46.56;100767.44;5070375;28;20224;-77
2022/07/27 10:34:38;;;;;;;0.13;0.13;;;;;;;19.21;46.36;100780.25;5070155;28;20178;-76
2022/07/27 10:37:22;;;;;;;0.10;0.10;;;;;;;19.16;46.93;100772.22;5068686;28;20178;-76
2022/07/27 10:42:49;;;;;;;0.30;0.17;;;;;;;19.58;47.53;100761.28;5071494;28;20316;-77
2022/07/27 10:45:16;;;;;;;0.10;0.10;;;;;;;19.71;46.04;100763.94;5073558;28;20184;-77
2022/07/27 10:47:44;;;;;;;0.53;0.53;;;;;;;19.74;45.57;100757.66;5073665;28;20178;-76
2022/07/27 10:50:18;;;;;;;0.00;0.00;;;;;;;20.14;45.86;100758.03;5073878;28;20269;-77
2022/07/27 10:52:44;;;;;;;0.00;0.00;;;;;;;19.92;45.47;100762.34;5072586;28;20224;-75
2022/07/27 10:55:34;;;;;;;0.20;0.20;;;;;;;19.58;45.70;100754.94;5073703;28;20566;-77
2022/07/27 10:58:02;;;;;;;0.00;0.00;;;;;;;19.42;46.62;100763.31;5061954;28;20207;-76
2022/07/27 11:00:49;;;;;;;0.77;0.40;;;;;;;19.34;47.47;100758.75;5073732;28;20240;-77
2022/07/27 11:03:23;;;;;;;0.67;0.40;;;;;;;19.13;46.72;100770.19;5073971;28;20216;-76
2022/07/27 11:06:10;;;;;;;0.10;0.10;;;;;;;19.05;47.02;100760.09;5072446;28;20171;-76
2022/07/27 11:08:40;;;;;;;0.03;0.03;;;;;;;19.45;47.35;100762.56;5072222;28;20171;-77
2022/07/27 11:11:08;;;;;;;0.07;0.07;;;;;;;19.32;46.17;100766.63;5072603;28;20174;-78
2022/07/27 11:13:34;;;;;;;0.33;0.33;;;;;;;19.11;47.21;100769.75;5071983;28;20232;-76
2022/07/27 11:16:02;;;;;;;0.10;0.10;;;;;;;19.13;46.88;100769.38;5066580;28;20278;-77
2022/07/27 11:18:28;;;;;;;0.13;0.13;;;;;;;19.16;46.70;100765.88;5069558;28;20179;-76
2022/07/27 11:21:16;;;;;;;1.23;0.13;;;;;;;19.08;46.97;100764.91;5071669;28;20174;-76
2022/07/27 11:23:43;;;;;;;0.00;0.00;;;;;;;19.19;47.54;100770.69;5070459;28;20213;-77
2022/07/27 11:26:09;;;;;;;0.00;0.00;;;;;;;19.36;47.39;100753.66;5071778;28;20170;-76
2022/07/27 11:28:35;;;;;;;0.10;0.10;;;;;;;19.25;45.77;100763.72;5069821;28;20209;-76
2022/07/27 11:31:01;;;;;;;0.00;0.00;;;;;;;19.27;45.98;100764.97;5072329;28;20177;-74